createdAt,value
2022-11-24T00:01:12.601Z,2.70
2022-11-24T00:03:39.672Z,5.27
2022-11-24T00:06:09.530Z,3.27
2022-11-24T00:08:37.794Z,4.37
2022-11-24T00:11:16.677Z,2.00
2022-11-24T00:13:44.049Z,1.07
2022-11-24T00:16:19.739Z,5.07
2022-11-24T00:18:49.576Z,5.77
2022-11-24T00:21:17.402Z,3.93
2022-11-24T00:23:45.578Z,4.27
2022-11-24T00:26:14.968Z,1.63
2022-11-24T00:28:43.044Z,7.23
2022-11-24T00:31:25.025Z,3.63
2022-11-24T00:33:55.084Z,6.10
2022-11-24T00:36:24.434Z,5.33
2022-11-24T00:38:59.696Z,7.33
2022-11-24T00:41:27.776Z,3.97
2022-11-24T00:43:55.108Z,6.73
2022-11-24T00:46:23.552Z,5.33
2022-11-24T00:48:51.218Z,4.67
2022-11-24T00:51:22.314Z,5.00
2022-11-24T00:53:49.825Z,15.07
2022-11-24T00:56:16.564Z,8.17
2022-11-24T00:58:43.353Z,2.93
2022-11-24T01:01:19.738Z,9.63
2022-11-24T01:03:49.652Z,6.40
2022-11-24T01:06:22.468Z,7.23
2022-11-24T01:08:49.924Z,3.67
2022-11-24T01:11:20.096Z,4.27
2022-11-24T01:13:49.826Z,5.07
2022-11-24T01:16:35.397Z,7.27
2022-11-24T01:19:03.926Z,6.23
2022-11-24T01:21:30.654Z,9.77
2022-11-24T01:23:57.764Z,4.90
2022-11-24T01:26:24.597Z,4.13
2022-11-24T01:28:56.020Z,5.57
2022-11-24T01:31:23.570Z,6.87
2022-11-24T01:33:50.414Z,5.23
2022-11-24T01:36:17.234Z,8.67
2022-11-24T01:38:43.900Z,5.40
2022-11-24T01:41:14.993Z,5.87
2022-11-24T01:43:43.436Z,5.47
2022-11-24T01:46:19.266Z,5.97
2022-11-24T01:48:53.068Z,8.37
2022-11-24T01:51:25.624Z,4.27
2022-11-24T01:53:59.177Z,4.97
2022-11-24T01:56:27.652Z,8.17
2022-11-24T01:58:59.149Z,4.90
2022-11-24T02:01:26.333Z,6.17
2022-11-24T02:03:53.866Z,5.67
2022-11-24T02:06:26.402Z,6.67
2022-11-24T02:08:59.218Z,2.77
2022-11-24T02:11:31.007Z,7.53
2022-11-24T02:13:57.901Z,9.20
2022-11-24T02:16:25.067Z,5.30
2022-11-24T02:18:52.084Z,8.13
2022-11-24T02:21:19.369Z,2.57
2022-11-24T02:24:08.827Z,4.33
2022-11-24T02:26:46.622Z,10.43
2022-11-24T02:29:14.728Z,2.93
2022-11-24T02:31:46.829Z,2.90
2022-11-24T02:34:13.762Z,3.60
2022-11-24T02:36:40.560Z,1.53
2022-11-24T02:39:15.093Z,3.77
2022-11-24T02:41:52.508Z,3.43
2022-11-24T02:44:22.336Z,6.63
2022-11-24T02:46:49.390Z,5.57
2022-11-24T02:49:16.284Z,1.40
2022-11-24T02:51:42.956Z,7.53
2022-11-24T02:54:10.235Z,2.60
2022-11-24T02:56:37.448Z,2.80
2022-11-24T02:59:04.202Z,2.83
2022-11-24T03:01:31.146Z,4.47
2022-11-24T03:03:57.824Z,3.00
2022-11-24T03:06:24.529Z,3.67
2022-11-24T03:08:51.170Z,3.20
2022-11-24T03:11:17.884Z,1.90
2022-11-24T03:13:44.615Z,3.03
2022-11-24T03:16:11.653Z,8.47
2022-11-24T03:18:39.364Z,2.60
2022-11-24T03:21:06.345Z,8.20
2022-11-24T03:23:33.142Z,4.93
2022-11-24T03:26:11.475Z,2.23
2022-11-24T03:28:39.238Z,2.77
2022-11-24T03:31:07.932Z,2.63
2022-11-24T03:33:36.361Z,3.27
2022-11-24T03:36:04.377Z,4.90
2022-11-24T03:38:31.399Z,1.30
2022-11-24T03:40:58.101Z,4.43
2022-11-24T03:43:25.149Z,3.63
2022-11-24T03:45:52.905Z,4.07
2022-11-24T03:48:23.168Z,2.83
2022-11-24T03:50:56.218Z,1.03
2022-11-24T03:53:25.217Z,1.57
2022-11-24T03:55:53.073Z,3.07
2022-11-24T03:58:20.101Z,4.13
2022-11-24T04:00:49.485Z,0.93
2022-11-24T04:03:17.056Z,2.17
2022-11-24T04:05:43.850Z,4.37
2022-11-24T04:08:10.506Z,0.77
2022-11-24T04:10:38.365Z,1.07
2022-11-24T04:13:11.229Z,4.73
2022-11-24T04:15:40.408Z,3.90
2022-11-24T04:18:08.300Z,4.43
2022-11-24T04:20:36.282Z,2.33
2022-11-24T04:23:03.322Z,2.37
2022-11-24T04:25:30.519Z,1.70
2022-11-24T04:27:57.929Z,5.07
2022-11-24T04:30:27.268Z,5.93
2022-11-24T04:32:54.651Z,2.67
2022-11-24T04:35:21.772Z,1.83
2022-11-24T04:37:48.550Z,4.57
2022-11-24T04:40:15.916Z,4.70
2022-11-24T04:42:42.744Z,1.17
2022-11-24T04:45:11.588Z,1.57
2022-11-24T04:47:39.618Z,1.70
2022-11-24T04:50:08.550Z,2.43
2022-11-24T04:52:35.543Z,4.23
2022-11-24T04:55:02.208Z,4.97
2022-11-24T04:57:29.185Z,3.53
2022-11-24T04:59:55.970Z,3.67
2022-11-24T05:02:23.656Z,2.27
2022-11-24T05:04:50.637Z,2.50
2022-11-24T05:07:19.412Z,4.60
2022-11-24T05:10:05.770Z,5.63
2022-11-24T05:12:32.523Z,3.90
2022-11-24T05:15:03.974Z,3.97
2022-11-24T05:17:32.566Z,4.10
2022-11-24T05:19:59.372Z,3.50
2022-11-24T05:22:28.014Z,2.40
2022-11-24T05:24:55.357Z,3.30
2022-11-24T05:27:22.808Z,4.63
2022-11-24T05:29:49.693Z,5.70
2022-11-24T05:32:16.534Z,3.23
2022-11-24T05:34:43.356Z,3.80
2022-11-24T05:37:10.392Z,5.27
2022-11-24T05:39:37.460Z,5.33
2022-11-24T05:42:25.023Z,5.27
2022-11-24T05:44:52.616Z,9.13
2022-11-24T05:47:19.582Z,8.00
2022-11-24T05:49:46.449Z,8.20
2022-11-24T05:52:13.908Z,7.53
2022-11-24T05:54:40.888Z,7.67
2022-11-24T05:57:07.777Z,4.50
2022-11-24T05:59:34.452Z,3.80
2022-11-24T06:02:01.426Z,2.63
2022-11-24T06:04:28.459Z,8.27
2022-11-24T06:06:56.000Z,8.57
2022-11-24T06:09:22.743Z,4.63
2022-11-24T06:11:49.798Z,5.00
2022-11-24T06:14:16.468Z,10.00
2022-11-24T06:16:43.393Z,3.57
2022-11-24T06:19:11.174Z,6.67
2022-11-24T06:21:37.921Z,5.77
2022-11-24T06:24:05.530Z,4.00
2022-11-24T06:26:32.737Z,9.13
2022-11-24T06:28:59.548Z,2.83
2022-11-24T06:31:26.504Z,8.60
2022-11-24T06:33:53.379Z,7.20
2022-11-24T06:36:20.499Z,4.80
2022-11-24T06:38:47.256Z,6.53
2022-11-24T06:41:15.998Z,3.27
2022-11-24T06:43:42.915Z,6.50
2022-11-24T06:46:10.751Z,4.43
2022-11-24T06:48:38.108Z,4.87
2022-11-24T06:51:10.764Z,7.33
2022-11-24T06:53:38.607Z,5.90
2022-11-24T06:56:12.192Z,6.03
2022-11-24T06:58:44.280Z,4.23
2022-11-24T07:01:19.093Z,6.30
2022-11-24T07:03:46.609Z,5.37
2022-11-24T07:06:13.670Z,7.43
2022-11-24T07:08:42.361Z,8.53
2022-11-24T07:11:13.352Z,2.80
2022-11-24T07:13:40.245Z,5.67
2022-11-24T07:16:21.846Z,4.83
2022-11-24T07:18:51.607Z,7.90
2022-11-24T07:21:20.343Z,6.63
2022-11-24T07:23:51.543Z,3.47
2022-11-24T07:26:19.062Z,4.67
2022-11-24T07:28:45.872Z,5.60
2022-11-24T07:31:15.529Z,3.93
2022-11-24T07:33:42.412Z,10.07
2022-11-24T07:36:10.501Z,7.80
2022-11-24T07:38:37.233Z,7.37
2022-11-24T07:41:06.143Z,8.87
2022-11-24T07:43:35.788Z,3.90
2022-11-24T07:46:02.832Z,11.97
2022-11-24T07:48:29.806Z,1.43
2022-11-24T07:50:59.379Z,5.27
2022-11-24T07:53:27.181Z,6.33
2022-11-24T07:55:56.527Z,6.03
2022-11-24T07:58:26.420Z,6.50
2022-11-24T08:00:56.817Z,4.90
2022-11-24T08:03:25.497Z,8.37
2022-11-24T08:08:47.151Z,7.73
2022-11-24T08:11:16.977Z,9.53
2022-11-24T08:13:43.964Z,5.63
2022-11-24T08:16:13.626Z,5.77
2022-11-24T08:18:41.679Z,3.90
2022-11-24T08:21:13.010Z,5.60
2022-11-24T08:23:41.065Z,6.47
2022-11-24T08:26:13.840Z,3.87
2022-11-24T08:28:40.962Z,7.60
2022-11-24T08:31:11.281Z,8.50
2022-11-24T08:33:38.533Z,5.82
2022-11-24T08:36:12.618Z,6.13
2022-11-24T08:38:39.698Z,4.13
2022-11-24T08:41:13.870Z,5.67
2022-11-24T08:43:42.104Z,5.53
2022-11-24T08:46:12.788Z,6.93
2022-11-24T08:48:41.065Z,5.75
2022-11-24T08:51:13.986Z,4.82
2022-11-24T08:53:42.378Z,4.63
2022-11-24T08:56:11.210Z,4.80
2022-11-24T08:58:39.205Z,8.00
2022-11-24T09:01:11.370Z,5.57
2022-11-24T09:03:42.205Z,5.93
2022-11-24T09:06:12.701Z,9.20
2022-11-24T09:08:39.966Z,6.30
2022-11-24T09:11:09.330Z,7.37
2022-11-24T09:13:36.717Z,4.10
2022-11-24T09:16:09.327Z,6.60
2022-11-24T09:18:36.064Z,2.73
2022-11-24T09:21:22.582Z,4.07
2022-11-24T09:23:50.500Z,7.70
2022-11-24T09:26:23.069Z,5.63
2022-11-24T09:28:50.625Z,7.77
2022-11-24T09:31:18.111Z,6.53
2022-11-24T09:33:45.780Z,6.10
2022-11-24T09:36:14.611Z,5.67
2022-11-24T09:38:42.781Z,6.23
2022-11-24T09:41:46.126Z,7.17
2022-11-24T09:44:16.234Z,5.40
2022-11-24T09:47:08.263Z,3.27
2022-11-24T09:49:38.005Z,6.87
2022-11-24T09:52:11.888Z,5.50
2022-11-24T09:54:49.326Z,5.80
2022-11-24T09:57:16.956Z,11.23
2022-11-24T09:59:43.825Z,8.43
2022-11-24T10:02:14.098Z,4.60
2022-11-24T10:04:46.506Z,6.63
2022-11-24T10:07:23.179Z,9.80
2022-11-24T10:09:52.988Z,5.23
2022-11-24T10:12:44.928Z,8.63
2022-11-24T10:15:25.674Z,2.87
2022-11-24T10:18:16.527Z,6.77
2022-11-24T10:21:05.913Z,9.07
2022-11-24T10:24:04.717Z,6.70
2022-11-24T10:26:40.705Z,4.47
2022-11-24T10:29:33.577Z,10.37
2022-11-24T10:32:04.956Z,7.10
2022-11-24T10:34:35.489Z,5.13
2022-11-24T10:37:13.269Z,7.83
2022-11-24T10:40:00.770Z,11.97
2022-11-24T10:42:38.812Z,5.10
2022-11-24T10:45:18.512Z,13.57
2022-11-24T10:47:46.637Z,14.93
2022-11-24T10:50:24.797Z,11.03
2022-11-24T10:52:57.625Z,3.87
2022-11-24T10:55:24.852Z,4.73
2022-11-24T10:57:51.577Z,7.03
2022-11-24T11:00:21.368Z,4.13
2022-11-24T11:02:50.304Z,7.30
2022-11-24T11:05:26.229Z,2.73
2022-11-24T11:08:30.413Z,4.03
2022-11-24T11:11:21.200Z,9.93
2022-11-24T11:13:52.058Z,3.77
2022-11-24T11:16:51.143Z,5.33
2022-11-24T11:20:01.598Z,3.00
2022-11-24T11:22:37.289Z,2.13
2022-11-24T11:25:18.459Z,1.90
2022-11-24T11:27:45.841Z,3.93
2022-11-24T11:36:11.536Z,1.90
2022-11-24T11:38:39.993Z,4.53
2022-11-24T11:41:17.149Z,5.53
2022-11-24T11:43:47.710Z,2.70
2022-11-24T11:46:16.994Z,2.40
2022-11-24T11:48:47.170Z,3.50
2022-11-24T11:51:34.413Z,2.53
2022-11-24T11:54:04.202Z,3.53
2022-11-24T11:56:40.293Z,2.90
2022-11-24T11:59:34.413Z,3.37
2022-11-24T12:02:23.061Z,4.03
2022-11-24T12:05:01.244Z,2.10
2022-11-24T12:07:51.751Z,3.93
2022-11-24T12:10:23.515Z,5.30
2022-11-24T12:13:25.141Z,6.23
2022-11-24T12:15:54.297Z,6.07
2022-11-24T12:18:57.749Z,3.83
2022-11-24T12:21:33.866Z,2.43
2022-11-24T12:24:25.959Z,1.43
2022-11-24T12:27:10.528Z,2.57
2022-11-24T12:30:07.973Z,2.63
2022-11-24T12:33:00.495Z,3.57
2022-11-24T12:35:44.672Z,1.23
2022-11-24T12:38:21.137Z,0.50
2022-11-24T12:44:36.047Z,2.67
2022-11-24T12:47:10.506Z,0.63
2022-11-24T12:49:43.760Z,1.97
2022-11-24T12:52:23.713Z,0.40
2022-11-24T12:54:50.480Z,1.30
2022-11-24T12:57:26.151Z,2.13
2022-11-24T13:00:10.687Z,1.20
2022-11-24T13:03:15.828Z,4.23
2022-11-24T13:05:59.743Z,1.10
2022-11-24T13:08:29.893Z,3.60
2022-11-24T13:11:22.549Z,1.60
2022-11-24T13:14:00.097Z,7.07
2022-11-24T13:16:36.180Z,3.13
2022-11-24T13:19:14.837Z,3.63
2022-11-24T13:21:41.647Z,9.53
2022-11-24T13:24:18.232Z,4.60
2022-11-24T13:26:50.044Z,5.83
2022-11-24T13:29:29.116Z,6.53
2022-11-24T13:32:19.134Z,4.87
2022-11-24T13:34:46.066Z,3.03
2022-11-24T13:37:34.803Z,3.43
2022-11-24T13:40:11.868Z,2.17
2022-11-24T13:43:02.554Z,3.97
2022-11-24T13:45:49.783Z,2.40
2022-11-24T13:48:19.310Z,3.70
2022-11-24T13:50:55.028Z,2.80
2022-11-24T13:53:47.666Z,1.50
2022-11-24T13:56:15.457Z,2.07
2022-11-24T13:58:42.124Z,7.20
2022-11-24T14:01:44.377Z,4.10
2022-11-24T14:04:30.428Z,4.60
2022-11-24T14:07:07.976Z,4.80
2022-11-24T14:09:35.932Z,4.57
2022-11-24T14:12:13.270Z,6.03
2022-11-24T14:14:41.475Z,3.47
2022-11-24T14:17:17.891Z,1.43
2022-11-24T14:19:47.785Z,3.17
2022-11-24T14:22:31.473Z,1.13
2022-11-24T14:25:00.885Z,2.10
2022-11-24T14:27:31.587Z,4.80
2022-11-24T14:30:03.491Z,4.00
2022-11-24T14:32:31.524Z,5.13
2022-11-24T14:34:58.469Z,1.20
2022-11-24T14:37:25.453Z,1.60
2022-11-24T14:39:52.267Z,1.13
2022-11-24T14:42:23.994Z,2.60
2022-11-24T14:44:56.580Z,1.67
2022-11-24T14:47:45.139Z,2.40
2022-11-24T14:50:19.314Z,1.47
2022-11-24T14:52:56.984Z,4.30
2022-11-24T14:55:31.315Z,1.90
2022-11-24T14:58:00.360Z,5.13
2022-11-24T15:00:30.334Z,8.33
2022-11-24T15:03:18.088Z,3.73
2022-11-24T15:06:17.014Z,1.80
2022-11-24T15:08:48.186Z,3.20
2022-11-24T15:11:16.874Z,3.13
2022-11-24T15:13:54.370Z,2.13
2022-11-24T15:16:25.145Z,3.37
2022-11-24T15:19:03.078Z,4.33
2022-11-24T15:21:37.119Z,4.30
2022-11-24T15:24:18.937Z,4.83
2022-11-24T15:26:47.289Z,4.73
2022-11-24T15:29:14.254Z,4.30
2022-11-24T15:31:45.300Z,13.07
2022-11-24T15:34:17.389Z,7.20
2022-11-24T15:36:44.228Z,1.00
2022-11-24T15:39:12.896Z,3.30
2022-11-24T15:41:41.062Z,5.23
2022-11-24T15:44:08.167Z,4.50
2022-11-24T15:46:38.585Z,8.13
2022-11-24T15:49:06.201Z,3.47
2022-11-24T15:51:33.834Z,13.07
2022-11-24T15:54:01.906Z,6.23
2022-11-24T15:56:36.725Z,7.77
2022-11-24T15:59:05.017Z,4.77
2022-11-24T16:01:35.525Z,4.50
2022-11-24T16:04:02.807Z,3.70
2022-11-24T16:06:29.834Z,4.47
2022-11-24T16:08:58.994Z,2.50
2022-11-24T16:11:26.376Z,3.63
2022-11-24T16:13:54.347Z,1.50
2022-11-24T16:16:23.400Z,3.77
2022-11-24T16:18:50.893Z,5.00
2022-11-24T16:21:17.924Z,4.43
2022-11-24T16:23:46.348Z,3.90
2022-11-24T16:26:13.199Z,4.07
2022-11-24T16:28:40.689Z,4.97
2022-11-24T16:31:07.974Z,4.47
2022-11-24T16:33:35.118Z,4.20
2022-11-24T16:36:02.993Z,6.93
2022-11-24T16:38:29.745Z,6.20
2022-11-24T16:40:57.654Z,3.07
2022-11-24T16:43:24.738Z,7.40
2022-11-24T16:46:19.691Z,5.67
2022-11-24T16:48:49.375Z,4.77
2022-11-24T16:51:17.621Z,4.00
2022-11-24T16:53:44.883Z,2.37
2022-11-24T16:56:11.982Z,3.33
2022-11-24T16:58:40.432Z,5.43
2022-11-24T17:01:10.414Z,6.20
2022-11-24T17:03:37.598Z,3.00
2022-11-24T17:06:11.983Z,3.77
2022-11-24T17:08:40.457Z,5.87
2022-11-24T17:11:09.403Z,2.70
2022-11-24T17:13:36.715Z,3.73
2022-11-24T17:16:08.581Z,4.33
2022-11-24T17:18:35.971Z,3.97
2022-11-24T17:21:09.258Z,5.37
2022-11-24T17:23:36.613Z,22.67
2022-11-24T17:26:10.374Z,40.30
2022-11-24T17:28:37.812Z,5.30
2022-11-24T17:31:21.805Z,4.33
2022-11-24T17:33:50.128Z,4.87
2022-11-24T17:36:18.924Z,3.47
2022-11-24T17:38:45.747Z,2.40
2022-11-24T17:41:14.263Z,7.00
2022-11-24T17:43:41.110Z,14.57
2022-11-24T17:46:10.300Z,4.47
2022-11-24T17:48:37.158Z,7.83
2022-11-24T17:51:08.484Z,11.63
2022-11-24T17:53:37.032Z,8.67
2022-11-24T17:56:05.317Z,99.53
2022-11-24T17:58:41.309Z,117.13
2022-11-24T18:01:10.066Z,60.20
2022-11-24T18:03:38.787Z,16.37
2022-11-24T18:06:10.993Z,10.40
2022-11-24T18:08:39.682Z,6.43
2022-11-24T18:11:25.976Z,39.17
2022-11-24T18:14:00.940Z,10.60
2022-11-24T18:16:31.264Z,5.83
2022-11-24T18:19:08.807Z,3.20
2022-11-24T18:21:37.831Z,2.70
2022-11-24T18:24:05.666Z,6.23
2022-11-24T18:26:33.107Z,2.87
2022-11-24T18:28:59.919Z,4.33
2022-11-24T18:31:27.661Z,3.93
2022-11-24T18:33:54.460Z,3.80
2022-11-24T18:36:28.376Z,3.57
2022-11-24T18:38:57.543Z,4.87
2022-11-24T18:41:24.300Z,6.60
2022-11-24T18:43:51.040Z,2.40
2022-11-24T18:46:19.357Z,8.33
2022-11-24T18:48:46.191Z,4.07
2022-11-24T18:51:14.825Z,26.47
2022-11-24T18:53:43.809Z,12.03
2022-11-24T18:56:19.729Z,6.77
2022-11-24T18:58:46.685Z,4.90
2022-11-24T19:01:15.716Z,3.67
2022-11-24T19:03:49.839Z,5.73
2022-11-24T19:06:22.373Z,9.13
2022-11-24T19:08:53.339Z,7.37
2022-11-24T19:11:25.674Z,4.33
2022-11-24T19:13:52.718Z,4.63
2022-11-24T19:16:21.366Z,4.80
2022-11-24T19:18:54.315Z,10.13
2022-11-24T19:21:22.210Z,4.97
2022-11-24T19:23:50.373Z,6.63
2022-11-24T19:26:18.504Z,6.83
2022-11-24T19:28:45.533Z,10.43
2022-11-24T19:31:15.462Z,6.10
2022-11-24T19:33:43.229Z,11.70
2022-11-24T19:36:14.081Z,7.77
2022-11-24T19:38:41.527Z,7.47
2022-11-24T19:41:13.268Z,7.00
2022-11-24T19:43:41.057Z,4.80
2022-11-24T19:46:13.331Z,4.17
2022-11-24T19:48:51.447Z,6.60
2022-11-24T19:51:21.834Z,6.00
2022-11-24T19:53:50.428Z,6.23
2022-11-24T19:56:20.437Z,5.83
2022-11-24T19:58:49.109Z,6.93
2022-11-24T20:01:16.893Z,6.00
2022-11-24T20:03:45.630Z,6.87
2022-11-24T20:06:14.504Z,6.43
2022-11-24T20:08:42.346Z,7.10
2022-11-24T20:11:12.706Z,6.43
2022-11-24T20:13:41.476Z,8.90
2022-11-24T20:16:13.821Z,7.03
2022-11-24T20:18:46.517Z,8.83
2022-11-24T20:21:16.409Z,11.53
2022-11-24T20:23:45.006Z,10.80
2022-11-24T20:26:15.607Z,10.87
2022-11-24T20:28:42.887Z,12.43
2022-11-24T20:31:13.763Z,15.77
2022-11-24T20:33:41.244Z,12.20
2022-11-24T20:36:13.932Z,10.43
2022-11-24T20:38:42.187Z,11.43
2022-11-24T20:41:11.938Z,10.43
2022-11-24T20:43:39.541Z,13.57
2022-11-24T20:46:12.529Z,11.13
2022-11-24T20:48:39.955Z,9.07
2022-11-24T20:51:17.000Z,11.60
2022-11-24T20:53:45.021Z,11.37
2022-11-24T20:56:23.714Z,9.97
2022-11-24T20:58:51.345Z,9.70
2022-11-24T21:01:24.591Z,12.13
2022-11-24T21:03:54.311Z,10.07
2022-11-24T21:06:21.304Z,12.23
2022-11-24T21:08:48.145Z,9.57
2022-11-24T21:11:16.327Z,10.47
2022-11-24T21:13:45.094Z,12.90
2022-11-24T21:16:21.503Z,43.63
2022-11-24T21:18:51.191Z,19.70
2022-11-24T21:21:20.636Z,14.87
2022-11-24T21:23:48.140Z,13.40
2022-11-24T21:26:17.494Z,14.97
2022-11-24T21:28:46.852Z,12.00
2022-11-24T21:31:19.989Z,25.37
2022-11-24T21:33:49.859Z,25.53
2022-11-24T21:36:21.013Z,13.40
2022-11-24T21:39:06.352Z,9.10
2022-11-24T21:41:34.757Z,12.93
2022-11-24T21:44:01.542Z,11.10
2022-11-24T21:46:30.349Z,14.23
2022-11-24T21:48:57.128Z,12.27
2022-11-24T21:51:24.271Z,14.53
2022-11-24T21:53:52.950Z,14.00
2022-11-24T21:56:23.229Z,13.17
2022-11-24T21:58:55.341Z,10.13
2022-11-24T22:01:24.737Z,12.80
2022-11-24T22:03:52.212Z,9.93
2022-11-24T22:06:21.972Z,7.83
2022-11-24T22:08:50.449Z,11.33
2022-11-24T22:11:21.354Z,11.03
2022-11-24T22:13:48.637Z,9.93
2022-11-24T22:16:17.842Z,8.33
2022-11-24T22:18:45.743Z,11.60
2022-11-24T22:21:30.007Z,6.90
2022-11-24T22:23:57.433Z,5.77
2022-11-24T22:26:24.789Z,6.17
2022-11-24T22:28:53.554Z,5.80
2022-11-24T22:31:23.045Z,6.60
2022-11-24T22:33:51.678Z,8.20
2022-11-24T22:36:21.838Z,6.23
2022-11-24T22:38:55.165Z,11.73
2022-11-24T22:41:22.611Z,11.40
2022-11-24T22:43:50.794Z,6.63
2022-11-24T22:46:21.058Z,9.23
2022-11-24T22:48:49.391Z,6.77
2022-11-24T22:51:23.733Z,7.93
2022-11-24T22:53:53.776Z,6.23
2022-11-24T22:56:21.836Z,9.10
2022-11-24T22:58:49.262Z,7.57
2022-11-24T23:01:22.188Z,8.83
2022-11-24T23:03:51.016Z,7.20
2022-11-24T23:06:21.263Z,8.27
2022-11-24T23:08:48.967Z,9.27
2022-11-24T23:11:18.382Z,9.70
2022-11-24T23:13:45.529Z,6.40
2022-11-24T23:16:15.539Z,8.33
2022-11-24T23:18:44.128Z,9.40
2022-11-24T23:21:13.354Z,7.73
2022-11-24T23:23:40.483Z,8.07
2022-11-24T23:26:16.535Z,6.87
2022-11-24T23:28:43.389Z,8.67
2022-11-24T23:31:13.142Z,6.37
2022-11-24T23:33:40.474Z,5.70
2022-11-24T23:36:15.445Z,7.77
2022-11-24T23:38:42.540Z,6.10
2022-11-24T23:41:12.496Z,7.53
2022-11-24T23:43:41.289Z,11.37
2022-11-24T23:46:22.609Z,10.77
2022-11-24T23:48:51.748Z,6.33
2022-11-24T23:51:25.283Z,5.80
2022-11-24T23:53:53.729Z,6.77
2022-11-24T23:56:24.457Z,5.10
2022-11-24T23:58:52.700Z,7.73
